Time;durP1;ratioP1;P1;durP2;ratioP2;P2;SDS_P1;SDS_P2;PMS_P1;PMS_P2;Temp;Humidity;BMP_temperature;BMP_pressure;BME280_temperature;BME280_humidity;BME280_pressure;Samples;Min_cycle;Max_cycle;Signal;HPM_P1;HPM_P2
2023/01/22 00:01:14;;;;;;;48.50;30.42;;;;;;;-3.78;100.00;103247.75;5087310;28;20024;-49
2023/01/22 00:03:40;;;;;;;52.08;33.28;;;;;;;-3.82;100.00;103252.56;5085700;28;20509;-47
2023/01/22 00:06:06;;;;;;;50.15;30.10;;;;;;;-3.85;100.00;103250.19;5086640;28;20024;-46
2023/01/22 00:08:32;;;;;;;46.28;28.63;;;;;;;-3.86;100.00;103253.03;5080204;28;20610;-48
2023/01/22 00:10:57;;;;;;;45.92;27.20;;;;;;;-3.86;100.00;103239.50;5087496;28;20104;-44
2023/01/22 00:13:25;;;;;;;49.42;30.80;;;;;;;-3.90;100.00;103243.53;5087320;28;20085;-47
2023/01/22 00:15:50;;;;;;;54.97;34.15;;;;;;;-3.92;100.00;103252.66;5087289;28;20028;-47
2023/01/22 00:18:17;;;;;;;48.50;30.00;;;;;;;-3.92;100.00;103259.91;5087454;28;20028;-46
2023/01/22 00:20:47;;;;;;;49.08;31.75;;;;;;;-3.92;100.00;103254.50;5087524;28;20282;-45
2023/01/22 00:23:12;;;;;;;46.38;29.83;;;;;;;-3.94;100.00;103260.03;5087222;28;20444;-44
2023/01/22 00:25:38;;;;;;;46.67;29.10;;;;;;;-3.90;100.00;103260.59;5087466;28;20031;-45
2023/01/22 00:28:03;;;;;;;51.65;33.03;;;;;;;-3.92;100.00;103252.66;5085728;28;20035;-45
2023/01/22 00:30:29;;;;;;;53.28;31.45;;;;;;;-3.92;100.00;103257.22;5088279;28;20028;-47
2023/01/22 00:32:54;;;;;;;44.05;25.95;;;;;;;-3.89;100.00;103243.38;5089445;28;20036;-46
2023/01/22 00:35:19;;;;;;;51.08;31.10;;;;;;;-3.86;100.00;103239.50;5090461;28;20119;-48
2023/01/22 00:37:47;;;;;;;50.17;29.88;;;;;;;-3.90;100.00;103240.81;5087432;28;20024;-46
2023/01/22 00:40:13;;;;;;;57.03;33.05;;;;;;;-3.83;100.00;103240.09;5086068;28;20024;-47
2023/01/22 00:42:38;;;;;;;49.88;29.42;;;;;;;-3.85;100.00;103241.22;5085693;28;20221;-48
2023/01/22 00:45:04;;;;;;;52.38;29.13;;;;;;;-3.83;100.00;103239.22;5086010;28;20034;-49
2023/01/22 00:47:29;;;;;;;49.67;32.35;;;;;;;-3.87;100.00;103241.38;5086381;28;20449;-44
2023/01/22 00:49:55;;;;;;;52.00;30.92;;;;;;;-3.90;100.00;103232.72;5087770;28;20028;-45
2023/01/22 00:52:20;;;;;;;52.22;30.52;;;;;;;-3.90;100.00;103233.56;5088088;28;20407;-45
2023/01/22 00:54:45;;;;;;;54.38;31.40;;;;;;;-3.91;100.00;103239.97;5090540;28;20105;-46
2023/01/22 00:57:11;;;;;;;49.35;28.73;;;;;;;-3.96;100.00;103235.00;5090230;28;20102;-46
2023/01/22 00:59:36;;;;;;;49.53;31.13;;;;;;;-3.87;100.00;103235.13;5090877;28;20075;-46
2023/01/22 01:02:01;;;;;;;52.17;30.67;;;;;;;-3.87;100.00;103225.16;5090970;28;20052;-45
2023/01/22 01:04:27;;;;;;;47.22;28.33;;;;;;;-3.88;100.00;103218.03;5090892;28;20020;-47
2023/01/22 01:06:52;;;;;;;50.47;28.33;;;;;;;-3.83;100.00;103217.56;5089193;28;20035;-47
2023/01/22 01:09:17;;;;;;;52.67;30.40;;;;;;;-3.94;100.00;103211.38;5083300;28;20036;-45
2023/01/22 01:11:43;;;;;;;50.97;30.38;;;;;;;-3.94;100.00;103214.06;5090791;28;20531;-44
2023/01/22 01:14:08;;;;;;;53.58;32.22;;;;;;;-3.96;100.00;103215.22;5090844;28;20031;-47
2023/01/22 01:16:34;;;;;;;52.92;30.70;;;;;;;-4.02;100.00;103202.31;5090826;28;20440;-45
2023/01/22 01:19:02;;;;;;;53.55;29.80;;;;;;;-3.95;100.00;103215.06;5094509;28;20024;-47
2023/01/22 01:21:28;;;;;;;46.97;30.08;;;;;;;-3.92;100.00;103222.06;5093102;28;20119;-44
2023/01/22 01:23:54;;;;;;;50.92;30.48;;;;;;;-3.92;100.00;103211.25;5094972;28;20539;-45
2023/01/22 01:26:20;;;;;;;46.28;27.17;;;;;;;-3.87;100.00;103218.91;5094339;28;20533;-47
2023/01/22 01:28:46;;;;;;;45.13;27.52;;;;;;;-3.85;100.00;103215.03;5092841;28;20040;-47
2023/01/22 01:31:13;;;;;;;46.72;28.90;;;;;;;-3.85;100.00;103203.34;5094461;28;20089;-45
2023/01/22 01:33:39;;;;;;;44.55;28.77;;;;;;;-3.83;100.00;103209.47;5094327;28;20032;-46
2023/01/22 01:36:09;;;;;;;44.40;27.05;;;;;;;-3.87;100.00;103211.63;5093951;28;20112;-46
2023/01/22 01:38:35;;;;;;;48.45;28.88;;;;;;;-3.79;100.00;103206.31;5094015;28;20032;-44
2023/01/22 01:41:00;;;;;;;45.08;26.67;;;;;;;-3.79;100.00;103211.72;5093794;28;20035;-44
2023/01/22 01:43:26;;;;;;;49.75;30.35;;;;;;;-3.87;100.00;103199.97;5093889;28;20028;-46
2023/01/22 01:45:53;;;;;;;44.70;27.77;;;;;;;-3.83;100.00;103198.66;5092781;28;20028;-44
2023/01/22 01:48:27;;;;;;;49.90;30.33;;;;;;;-3.89;100.00;103194.69;5094309;28;20024;-45
2023/01/22 01:50:58;;;;;;;46.88;27.55;;;;;;;-3.93;100.00;103196.84;5093758;28;20173;-44
2023/01/22 01:53:24;;;;;;;47.35;28.25;;;;;;;-3.97;100.00;103191.91;5094088;28;20486;-44
2023/01/22 01:55:49;;;;;;;43.53;27.65;;;;;;;-4.00;100.00;103178.66;5093694;28;20055;-43
2023/01/22 01:58:20;;;;;;;49.65;29.88;;;;;;;-4.02;100.00;103180.69;5092655;28;20425;-46
2023/01/22 02:00:48;;;;;;;43.05;27.63;;;;;;;-4.02;100.00;103178.81;5091630;28;20027;-47
2023/01/22 02:03:14;;;;;;;51.97;29.60;;;;;;;-4.07;100.00;103167.63;5088249;28;20278;-45
2023/01/22 02:05:39;;;;;;;45.65;29.60;;;;;;;-4.02;100.00;103172.59;5090503;28;20394;-46
2023/01/22 02:08:06;;;;;;;52.60;30.33;;;;;;;-4.07;100.00;103167.63;5093656;28;20100;-44
2023/01/22 02:10:31;;;;;;;44.45;27.63;;;;;;;-4.07;100.00;103159.50;5093310;28;20035;-44
2023/01/22 02:13:02;;;;;;;46.45;27.38;;;;;;;-4.06;100.00;103166.59;5093862;28;20028;-44
2023/01/22 02:15:27;;;;;;;44.00;28.05;;;;;;;-4.09;100.00;103162.34;5093431;28;20527;-45
2023/01/22 02:17:53;;;;;;;44.50;27.15;;;;;;;-4.07;100.00;103168.47;5093440;28;20108;-45
2023/01/22 02:20:18;;;;;;;46.70;29.90;;;;;;;-4.10;100.00;103170.63;5093389;28;20039;-44
2023/01/22 02:22:43;;;;;;;47.75;28.33;;;;;;;-4.10;100.00;103166.06;5093356;28;20024;-44
2023/01/22 02:25:09;;;;;;;48.92;28.00;;;;;;;-4.13;100.00;103171.78;5093212;28;20106;-45
2023/01/22 02:27:34;;;;;;;42.20;26.60;;;;;;;-4.12;100.00;103172.63;5093313;28;20024;-46
2023/01/22 02:29:59;;;;;;;43.35;26.00;;;;;;;-4.15;100.00;103170.19;5092151;28;20028;-47
2023/01/22 02:32:25;;;;;;;44.22;27.02;;;;;;;-4.12;100.00;103175.31;5093727;28;20367;-44
2023/01/22 02:34:50;;;;;;;47.10;27.05;;;;;;;-4.09;100.00;103170.47;5091858;28;20364;-43
2023/01/22 02:37:16;;;;;;;46.17;28.63;;;;;;;-4.07;100.00;103164.91;5092856;28;20096;-45
2023/01/22 02:39:41;;;;;;;46.13;27.08;;;;;;;-3.98;100.00;103172.13;5092749;28;20252;-42
2023/01/22 02:42:07;;;;;;;47.42;28.67;;;;;;;-3.93;100.00;103179.78;5091479;28;20035;-44
2023/01/22 02:44:32;;;;;;;43.80;26.13;;;;;;;-3.84;100.00;103183.41;5092684;28;20024;-44
2023/01/22 02:46:58;;;;;;;43.67;26.60;;;;;;;-3.80;100.00;103174.00;5092948;28;20077;-43
2023/01/22 02:49:24;;;;;;;43.50;27.02;;;;;;;-3.78;100.00;103180.97;5092833;28;20092;-44
2023/01/22 02:51:49;;;;;;;46.05;28.15;;;;;;;-3.73;100.00;103174.25;5092733;28;20035;-45
2023/01/22 02:54:14;;;;;;;45.47;27.33;;;;;;;-3.68;100.00;103185.44;5092506;28;20058;-43
2023/01/22 02:56:40;;;;;;;44.65;27.80;;;;;;;-3.64;100.00;103184.16;5091272;28;20028;-45
2023/01/22 02:59:05;;;;;;;40.67;26.30;;;;;;;-3.59;100.00;103183.69;5092880;28;20136;-44
2023/01/22 03:01:30;;;;;;;41.05;25.58;;;;;;;-3.58;100.00;103174.53;5092371;28;20134;-44
2023/01/22 03:04:00;;;;;;;43.22;27.55;;;;;;;-3.54;100.00;103176.78;5092422;28;20099;-45
2023/01/22 03:06:27;;;;;;;42.05;26.95;;;;;;;-3.50;100.00;103177.34;5090893;28;20028;-45
2023/01/22 03:08:58;;;;;;;39.90;25.90;;;;;;;-3.45;100.00;103183.16;5084354;28;20092;-44
2023/01/22 03:11:25;;;;;;;41.72;27.05;;;;;;;-3.41;100.00;103189.97;5092716;28;20420;-45
2023/01/22 03:22:04;;;;;;;40.85;25.00;;;;;;;-3.30;100.00;103170.75;5092466;28;19997;-44
2023/01/22 03:24:29;;;;;;;42.72;24.98;;;;;;;-3.28;100.00;103167.91;5092248;28;20055;-46
2023/01/22 03:26:55;;;;;;;38.10;24.60;;;;;;;-3.32;100.00;103148.44;5092147;28;20475;-44
2023/01/22 03:29:20;;;;;;;39.30;24.95;;;;;;;-3.21;100.00;103162.72;5092291;28;20044;-44
2023/01/22 03:31:47;;;;;;;39.33;25.05;;;;;;;-3.20;100.00;103158.97;5092121;28;20457;-44
2023/01/22 03:34:16;;;;;;;40.03;24.98;;;;;;;-3.20;100.00;103150.84;5092147;28;20055;-43
2023/01/22 03:36:42;;;;;;;38.80;24.50;;;;;;;-3.25;100.00;103150.50;5092043;28;20071;-44
2023/01/22 03:39:07;;;;;;;43.53;27.88;;;;;;;-3.29;100.00;103149.97;5091979;28;20051;-45
2023/01/22 03:41:33;;;;;;;37.25;24.40;;;;;;;-3.34;100.00;103136.91;5091782;28;20032;-45
2023/01/22 03:44:00;;;;;;;38.70;24.17;;;;;;;-3.37;100.00;103130.94;5091701;28;20469;-44
2023/01/22 03:46:26;;;;;;;37.50;24.48;;;;;;;-3.40;100.00;103126.69;5091859;28;20103;-45
2023/01/22 03:48:52;;;;;;;36.78;24.48;;;;;;;-3.45;100.00;103129.84;5091759;28;20028;-44
2023/01/22 03:51:19;;;;;;;39.58;25.15;;;;;;;-3.50;100.00;103131.34;5090393;28;20028;-46
2023/01/22 03:53:45;;;;;;;38.95;25.70;;;;;;;-3.54;100.00;103130.78;5091605;28;20023;-44
2023/01/22 03:56:16;;;;;;;37.33;24.98;;;;;;;-3.54;100.00;103138.06;5091406;28;20348;-44
2023/01/22 03:58:41;;;;;;;36.65;26.15;;;;;;;-3.49;100.00;103130.31;5091748;28;20475;-45
2023/01/22 04:01:09;;;;;;;40.92;26.95;;;;;;;-3.51;100.00;103132.34;5091551;28;20081;-45
2023/01/22 04:03:35;;;;;;;39.78;25.38;;;;;;;-3.45;100.00;103137.97;5089629;28;20035;-46
2023/01/22 04:06:00;;;;;;;38.28;25.00;;;;;;;-3.43;100.00;103137.84;5084536;28;20024;-44
2023/01/22 04:08:28;;;;;;;37.17;25.23;;;;;;;-3.40;100.00;103128.53;5090444;28;20056;-44
2023/01/22 04:10:54;;;;;;;39.65;26.15;;;;;;;-3.39;100.00;103131.09;5090753;28;20024;-46
2023/01/22 04:13:19;;;;;;;43.70;28.83;;;;;;;-3.31;100.00;103128.47;5090127;28;20074;-45
2023/01/22 04:15:45;;;;;;;38.40;24.90;;;;;;;-3.25;100.00;103128.84;5091392;28;20051;-44
2023/01/22 04:18:11;;;;;;;36.72;23.75;;;;;;;-3.18;100.00;103135.31;5091324;28;20028;-46
2023/01/22 04:20:37;;;;;;;39.08;24.30;;;;;;;-3.17;100.00;103123.47;5091436;28;20115;-45
2023/01/22 04:23:02;;;;;;;36.75;22.70;;;;;;;-2.95;100.00;103135.66;5091084;28;20489;-45
2023/01/22 04:25:28;;;;;;;37.00;24.98;;;;;;;-2.92;100.00;103139.88;5091238;28;20024;-46
2023/01/22 04:27:53;;;;;;;36.67;24.13;;;;;;;-2.86;100.00;103133.84;5091160;28;20114;-47
2023/01/22 04:30:19;;;;;;;34.95;23.42;;;;;;;-2.82;100.00;103127.09;5091523;28;20111;-47
2023/01/22 04:32:44;;;;;;;34.58;22.60;;;;;;;-2.87;100.00;103122.16;5091325;28;20479;-48
2023/01/22 04:35:09;;;;;;;35.55;23.83;;;;;;;-2.86;100.00;103123.84;5091093;28;20099;-46
2023/01/22 04:37:35;;;;;;;37.33;24.55;;;;;;;-2.87;100.00;103133.00;5091308;28;20024;-44
2023/01/22 04:40:00;;;;;;;34.95;23.08;;;;;;;-2.85;100.00;103127.44;5091039;28;20070;-43
2023/01/22 04:42:26;;;;;;;38.60;24.65;;;;;;;-2.83;100.00;103126.25;5091053;28;20115;-44
2023/01/22 04:44:51;;;;;;;36.28;23.52;;;;;;;-2.81;100.00;103120.66;5091303;28;20063;-44
2023/01/22 04:47:17;;;;;;;35.00;23.42;;;;;;;-2.79;100.00;103123.25;5091069;28;20502;-45
2023/01/22 04:49:42;;;;;;;35.08;23.63;;;;;;;-2.82;100.00;103116.25;5091068;28;20052;-45
2023/01/22 04:52:07;;;;;;;35.03;23.00;;;;;;;-2.78;100.00;103128.47;5091366;28;20029;-45
2023/01/22 04:54:33;;;;;;;34.30;24.00;;;;;;;-2.72;100.00;103125.13;5094949;28;20036;-44
2023/01/22 04:56:58;;;;;;;34.47;23.73;;;;;;;-2.76;100.00;103125.59;5094893;28;20042;-45
2023/01/22 04:59:23;;;;;;;33.55;21.88;;;;;;;-2.71;100.00;103128.69;5094929;28;20039;-45
2023/01/22 05:01:51;;;;;;;35.35;22.73;;;;;;;-2.69;100.00;103134.78;5094799;28;20028;-47
2023/01/22 05:04:17;;;;;;;34.42;23.15;;;;;;;-2.63;100.00;103125.16;5094662;28;20476;-45
2023/01/22 05:06:42;;;;;;;33.10;23.55;;;;;;;-2.66;100.00;103126.34;5094786;28;20043;-44
2023/01/22 05:09:08;;;;;;;32.30;20.50;;;;;;;-2.60;100.00;103128.44;5087307;28;20020;-43
2023/01/22 05:11:33;;;;;;;31.73;22.00;;;;;;;-2.61;100.00;103129.44;5094982;28;20549;-46
2023/01/22 05:13:58;;;;;;;32.05;20.58;;;;;;;-2.63;100.00;103126.03;5094786;28;20127;-44
2023/01/22 05:16:24;;;;;;;32.70;20.75;;;;;;;-2.59;100.00;103126.56;5094616;28;20524;-45
2023/01/22 05:18:49;;;;;;;33.10;21.42;;;;;;;-2.60;100.00;103130.28;5094640;28;20031;-47
2023/01/22 05:21:14;;;;;;;30.65;20.30;;;;;;;-2.60;100.00;103128.44;5094427;28;20020;-46
2023/01/22 05:23:40;;;;;;;30.98;19.85;;;;;;;-2.62;100.00;103116.88;5092988;28;20580;-45
2023/01/22 05:26:05;;;;;;;32.30;20.25;;;;;;;-2.58;100.00;103129.09;5094399;28;20020;-44
2023/01/22 05:28:30;;;;;;;32.88;21.25;;;;;;;-2.58;100.00;103120.13;5094449;28;20028;-45
2023/01/22 05:30:55;;;;;;;33.97;23.35;;;;;;;-2.58;100.00;103129.09;5093634;28;20544;-45
2023/01/22 05:33:21;;;;;;;30.15;20.92;;;;;;;-2.58;100.00;103130.97;5094167;28;20040;-44
2023/01/22 05:35:55;;;;;;;32.85;21.83;;;;;;;-2.60;100.00;103135.69;5094535;28;20056;-44
2023/01/22 05:38:20;;;;;;;33.10;22.33;;;;;;;-2.62;100.00;103140.41;5094260;28;20535;-46
2023/01/22 05:40:46;;;;;;;31.52;20.60;;;;;;;-2.62;100.00;103140.41;5094086;28;20035;-45
2023/01/22 05:43:11;;;;;;;32.80;20.92;;;;;;;-2.60;100.00;103149.25;5092676;28;20047;-46
2023/01/22 05:45:36;;;;;;;31.58;21.63;;;;;;;-2.55;100.00;103153.16;5094074;28;20450;-44
2023/01/22 05:48:02;;;;;;;31.02;20.40;;;;;;;-2.56;100.00;103148.75;5094077;28;20032;-47
2023/01/22 05:50:27;;;;;;;32.67;20.10;;;;;;;-2.51;100.00;103151.84;5094202;28;20077;-45
2023/01/22 05:52:54;;;;;;;32.28;21.63;;;;;;;-2.48;100.00;103147.97;5093862;28;20108;-47
2023/01/22 05:55:19;;;;;;;32.05;21.38;;;;;;;-2.49;100.00;103146.25;5093784;28;20044;-45
2023/01/22 05:57:45;;;;;;;32.05;22.08;;;;;;;-2.45;100.00;103149.50;5093714;28;20437;-48
2023/01/22 06:00:11;;;;;;;30.20;19.90;;;;;;;-2.44;100.00;103151.19;5093651;28;20483;-45
2023/01/22 06:02:36;;;;;;;31.00;21.25;;;;;;;-2.42;100.00;103162.72;5093582;28;20024;-44
2023/01/22 06:05:01;;;;;;;30.92;21.27;;;;;;;-2.43;100.00;103142.88;5092523;28;20028;-44
2023/01/22 06:07:29;;;;;;;32.65;21.88;;;;;;;-2.42;100.00;103152.72;5093549;28;20028;-45
2023/01/22 06:09:54;;;;;;;32.38;21.50;;;;;;;-2.39;100.00;103149.69;5086207;28;20032;-44
2023/01/22 06:12:19;;;;;;;33.15;22.08;;;;;;;-2.37;100.00;103144.97;5093472;28;20420;-45
2023/01/22 06:14:44;;;;;;;31.92;21.30;;;;;;;-2.40;100.00;103144.41;5093698;28;20028;-49
2023/01/22 06:17:10;;;;;;;31.73;20.85;;;;;;;-2.42;100.00;103141.88;5093556;28;20020;-48
2023/01/22 06:19:35;;;;;;;33.20;22.17;;;;;;;-2.37;100.00;103144.09;5093304;28;20027;-47
2023/01/22 06:22:00;;;;;;;31.15;21.30;;;;;;;-2.42;100.00;103152.72;5092903;28;20097;-47
2023/01/22 06:24:26;;;;;;;31.58;21.48;;;;;;;-2.39;100.00;103154.25;5093237;28;20035;-47
2023/01/22 06:26:51;;;;;;;31.83;21.48;;;;;;;-2.36;100.00;103156.66;5093310;28;20107;-47
2023/01/22 06:29:16;;;;;;;33.30;21.77;;;;;;;-2.37;100.00;103153.09;5093190;28;20027;-47
2023/01/22 06:31:41;;;;;;;35.33;22.50;;;;;;;-2.35;100.00;103152.94;5093121;28;20444;-44
2023/01/22 06:34:07;;;;;;;32.00;20.98;;;;;;;-2.27;100.00;103142.13;5093106;28;20031;-46
2023/01/22 06:36:33;;;;;;;32.80;20.90;;;;;;;-2.34;100.00;103143.78;5092499;28;20028;-44
2023/01/22 06:38:58;;;;;;;34.30;23.08;;;;;;;-2.32;100.00;103154.47;5092739;28;20076;-49
2023/01/22 06:41:23;;;;;;;33.33;22.40;;;;;;;-2.32;100.00;103143.63;5093031;28;20479;-46
2023/01/22 06:43:49;;;;;;;32.90;22.60;;;;;;;-2.36;100.00;103141.22;5092900;28;20028;-44
2023/01/22 06:46:14;;;;;;;32.80;22.73;;;;;;;-2.37;100.00;103155.81;5092958;28;20043;-47
2023/01/22 06:48:42;;;;;;;34.92;23.35;;;;;;;-2.33;100.00;103158.19;5092856;28;20028;-44
2023/01/22 06:51:08;;;;;;;33.78;22.55;;;;;;;-2.32;100.00;103159.88;5092864;28;20027;-45
2023/01/22 06:53:33;;;;;;;33.38;21.42;;;;;;;-2.34;100.00;103138.38;5091463;28;20043;-46
2023/01/22 06:55:59;;;;;;;33.50;21.80;;;;;;;-2.26;100.00;103153.78;5091012;28;20048;-44
2023/01/22 06:58:24;;;;;;;31.65;21.45;;;;;;;-2.26;100.00;103164.63;5092521;28;20028;-46
2023/01/22 07:00:49;;;;;;;32.90;22.00;;;;;;;-2.24;100.00;103166.19;5092419;28;20024;-44
2023/01/22 07:03:15;;;;;;;33.80;21.73;;;;;;;-2.25;100.00;103169.06;5092339;28;20082;-45
2023/01/22 07:05:40;;;;;;;32.30;21.08;;;;;;;-2.24;100.00;103170.75;5092394;28;20039;-44
2023/01/22 07:08:06;;;;;;;35.35;23.50;;;;;;;-2.25;100.00;103155.50;5089856;28;20039;-45
2023/01/22 07:10:31;;;;;;;33.60;22.40;;;;;;;-2.21;100.00;103165.03;5086822;28;20427;-45
2023/01/22 07:13:00;;;;;;;32.25;21.23;;;;;;;-2.23;100.00;103156.19;5092467;28;20052;-45
2023/01/22 07:15:26;;;;;;;34.95;21.40;;;;;;;-2.18;100.00;103164.69;5090568;28;20032;-45
2023/01/22 07:17:52;;;;;;;31.65;20.80;;;;;;;-2.17;100.00;103160.13;5092048;28;20502;-47
2023/01/22 07:20:19;;;;;;;32.70;21.63;;;;;;;-2.18;100.00;103167.41;5092660;28;20028;-44
2023/01/22 07:22:45;;;;;;;32.55;21.88;;;;;;;-2.23;100.00;103167.91;5090674;28;20042;-46
2023/01/22 07:25:10;;;;;;;33.00;20.83;;;;;;;-2.20;100.00;103166.72;5090628;28;20103;-44
2023/01/22 07:27:37;;;;;;;32.25;22.42;;;;;;;-2.22;100.00;103160.59;5090840;28;20115;-46
2023/01/22 07:30:03;;;;;;;32.75;19.98;;;;;;;-2.15;100.00;103168.94;5090498;28;20020;-46
2023/01/22 07:32:28;;;;;;;32.67;22.08;;;;;;;-2.14;100.00;103168.78;5090267;28;20097;-46
2023/01/22 07:34:54;;;;;;;31.00;21.70;;;;;;;-2.11;100.00;103168.44;5090216;28;20036;-46
2023/01/22 07:37:19;;;;;;;33.33;21.52;;;;;;;-2.09;100.00;103168.28;5090902;28;20028;-46
2023/01/22 07:39:44;;;;;;;32.15;21.35;;;;;;;-2.10;100.00;103169.28;5090748;28;20028;-45
2023/01/22 07:42:11;;;;;;;29.77;20.55;;;;;;;-2.15;100.00;103168.94;5091294;28;20066;-43
2023/01/22 07:44:39;;;;;;;32.00;22.20;;;;;;;-2.18;100.00;103155.69;5090512;28;20028;-43
2023/01/22 07:47:04;;;;;;;32.50;21.77;;;;;;;-2.09;100.00;103176.41;5091671;28;20024;-47
2023/01/22 07:49:29;;;;;;;30.17;19.80;;;;;;;-2.11;100.00;103168.44;5090601;28;20403;-46
2023/01/22 07:51:55;;;;;;;30.98;20.73;;;;;;;-2.09;100.00;103165.56;5091290;28;20048;-44
2023/01/22 07:54:20;;;;;;;31.65;21.00;;;;;;;-2.09;100.00;103168.28;5090976;28;20111;-46
2023/01/22 07:56:46;;;;;;;27.58;18.52;;;;;;;-2.07;100.00;103166.25;5091158;28;20032;-46
2023/01/22 07:59:11;;;;;;;30.98;19.42;;;;;;;-2.05;100.00;103175.91;5091280;28;20107;-47
2023/01/22 08:01:36;;;;;;;31.00;20.00;;;;;;;-1.99;100.00;103181.72;5091343;28;20024;-46
2023/01/22 08:04:01;;;;;;;29.27;19.17;;;;;;;-1.95;100.00;103186.66;5089998;28;20059;-45
2023/01/22 08:06:27;;;;;;;30.92;19.70;;;;;;;-1.91;100.00;103185.28;5083937;28;20066;-47
2023/01/22 08:08:52;;;;;;;30.63;19.83;;;;;;;-1.83;100.00;103186.31;5091718;28;20024;-44
2023/01/22 08:11:18;;;;;;;28.05;17.77;;;;;;;-1.83;100.00;103187.19;5091520;28;20020;-45
2023/01/22 08:13:43;;;;;;;28.55;18.33;;;;;;;-1.82;100.00;103190.75;5089760;28;20039;-44
2023/01/22 08:16:08;;;;;;;30.27;19.95;;;;;;;-1.83;100.00;103183.63;5091288;28;20032;-47
2023/01/22 08:18:35;;;;;;;28.02;18.08;;;;;;;-1.78;100.00;103192.13;5091250;28;20028;-46
2023/01/22 08:21:00;;;;;;;26.83;17.95;;;;;;;-1.78;100.00;103194.84;5091302;28;20499;-45
2023/01/22 08:23:26;;;;;;;27.45;18.00;;;;;;;-1.74;100.00;103191.63;5091333;28;20059;-43
2023/01/22 08:25:52;;;;;;;28.50;18.50;;;;;;;-1.73;100.00;103184.31;5087808;28;20505;-43
2023/01/22 08:28:17;;;;;;;28.33;17.75;;;;;;;-1.70;100.00;103185.88;5070443;28;20172;-44
2023/01/22 08:30:42;;;;;;;27.05;17.10;;;;;;;-1.63;100.00;103198.59;5077013;28;20508;-44
2023/01/22 08:33:08;;;;;;;29.65;19.52;;;;;;;-1.66;100.00;103198.94;5079253;28;20044;-44
2023/01/22 08:35:33;;;;;;;27.50;18.15;;;;;;;-1.59;100.00;103201.81;5069486;28;20025;-44
2023/01/22 08:37:59;;;;;;;28.45;18.25;;;;;;;-1.60;100.00;103198.28;5071280;28;20029;-46
2023/01/22 08:40:25;;;;;;;26.33;17.30;;;;;;;-1.53;100.00;103208.47;5071028;28;20032;-48
2023/01/22 08:42:54;;;;;;;29.60;17.35;;;;;;;-1.48;100.00;103198.78;5070734;28;20024;-45
2023/01/22 08:45:20;;;;;;;27.48;17.85;;;;;;;-1.46;100.00;103202.19;5071030;28;20036;-45
2023/01/22 08:47:45;;;;;;;26.50;16.98;;;;;;;-1.47;100.00;103203.22;5068955;28;20072;-48
2023/01/22 08:50:11;;;;;;;27.13;16.92;;;;;;;-1.49;100.00;103198.97;5070525;28;20029;-48
2023/01/22 08:52:36;;;;;;;26.17;17.10;;;;;;;-1.49;100.00;103198.97;5069430;28;20385;-45
2023/01/22 08:55:03;;;;;;;30.63;19.25;;;;;;;-1.50;100.00;103198.09;5070873;28;20303;-44
2023/01/22 08:57:29;;;;;;;25.55;16.17;;;;;;;-1.49;100.00;103217.97;5070690;28;20040;-46
2023/01/22 08:59:54;;;;;;;28.05;18.40;;;;;;;-1.53;100.00;103201.19;5070576;28;20036;-46
2023/01/22 09:02:19;;;;;;;29.23;17.40;;;;;;;-1.53;100.00;103203.03;5063083;28;20028;-46
2023/01/22 09:04:44;;;;;;;26.52;17.77;;;;;;;-1.56;100.00;103198.78;5069289;28;20479;-46
2023/01/22 09:07:10;;;;;;;27.95;19.95;;;;;;;-1.61;100.00;103214.75;5070748;28;20132;-46
2023/01/22 09:09:35;;;;;;;25.92;16.95;;;;;;;-1.63;100.00;103204.03;5071525;28;20051;-47
2023/01/22 09:12:01;;;;;;;27.10;16.83;;;;;;;-1.60;100.00;103209.13;5078997;28;20104;-46
2023/01/22 09:14:26;;;;;;;31.90;20.27;;;;;;;-1.60;100.00;103186.56;5078335;28;20055;-49
2023/01/22 09:16:52;;;;;;;27.58;17.40;;;;;;;-1.56;100.00;103212.34;5080613;28;20123;-50
2023/01/22 09:19:17;;;;;;;24.92;17.42;;;;;;;-1.55;100.00;103208.63;5081248;28;20082;-51
2023/01/22 09:21:43;;;;;;;28.83;18.05;;;;;;;-1.55;100.00;103205.91;5077271;28;20464;-49
2023/01/22 09:24:08;;;;;;;29.17;18.33;;;;;;;-1.56;100.00;103212.34;5076642;28;20024;-49
2023/01/22 09:26:35;;;;;;;26.20;16.95;;;;;;;-1.53;100.00;103214.75;5069085;28;20021;-49
2023/01/22 09:29:04;;;;;;;27.92;17.67;;;;;;;-1.51;100.00;103212.69;5081173;28;20030;-49
2023/01/22 09:31:38;;;;;;;26.88;17.58;;;;;;;-1.52;100.00;103196.59;5089083;28;20035;-48
2023/01/22 09:34:04;;;;;;;26.85;17.60;;;;;;;-1.44;100.00;103212.88;5088741;28;20028;-47
2023/01/22 09:36:29;;;;;;;27.30;18.27;;;;;;;-1.45;100.00;103217.47;5086975;28;20051;-46
2023/01/22 09:38:55;;;;;;;26.98;16.73;;;;;;;-1.41;100.00;103221.53;5090401;28;20071;-48
2023/01/22 09:41:37;;;;;;;26.73;17.23;;;;;;;-1.29;100.00;103207.66;5089873;28;20028;-49
2023/01/22 09:44:41;;;;;;;25.80;17.20;;;;;;;-1.24;100.00;103220.72;5091455;28;20042;-46
2023/01/22 09:47:12;;;;;;;28.65;18.17;;;;;;;-1.19;100.00;103230.06;5092583;28;20024;-46
2023/01/22 09:49:57;;;;;;;25.02;16.25;;;;;;;-1.10;100.00;103226.34;5091007;28;20036;-48
2023/01/22 09:52:27;;;;;;;27.27;16.92;;;;;;;-1.05;100.00;103225.00;5090836;28;20483;-48
2023/01/22 09:54:52;;;;;;;24.85;17.02;;;;;;;-1.06;100.00;103226.84;5090848;28;20048;-47
2023/01/22 09:57:18;;;;;;;26.20;17.27;;;;;;;-1.09;100.00;103227.19;5091966;28;20024;-46
2023/01/22 09:59:50;;;;;;;26.52;17.95;;;;;;;-1.07;100.00;103225.16;5092068;28;20039;-49
2023/01/22 10:02:25;;;;;;;28.83;17.00;;;;;;;-1.08;100.00;103220.72;5091932;28;20036;-49
2023/01/22 10:04:55;;;;;;;24.88;16.42;;;;;;;-1.05;100.00;103222.28;5091942;28;20054;-47
2023/01/22 10:07:29;;;;;;;27.20;17.67;;;;;;;-1.08;100.00;103222.59;5091960;28;20024;-46
2023/01/22 10:10:00;;;;;;;26.30;17.80;;;;;;;-1.08;100.00;103230.75;5091914;28;20103;-45
2023/01/22 10:12:30;;;;;;;25.30;17.00;;;;;;;-1.11;100.00;103227.34;5091816;28;20070;-48
2023/01/22 10:14:55;;;;;;;26.77;17.00;;;;;;;-1.11;100.00;103232.78;5092213;28;20103;-47
2023/01/22 10:17:26;;;;;;;26.70;17.40;;;;;;;-1.13;100.00;103237.53;5091558;28;20298;-48
2023/01/22 10:19:59;;;;;;;26.25;16.70;;;;;;;-1.15;100.00;103238.72;5091721;28;20099;-47
2023/01/22 10:22:25;;;;;;;26.30;17.67;;;;;;;-1.16;100.00;103231.59;5091371;28;20028;-47
2023/01/22 10:24:52;;;;;;;25.75;17.02;;;;;;;-1.15;100.00;103226.00;5091708;28;20297;-48
2023/01/22 10:27:21;;;;;;;26.13;17.52;;;;;;;-1.18;100.00;103220.91;5091165;28;20039;-48
2023/01/22 10:30:03;;;;;;;26.52;17.05;;;;;;;-1.14;100.00;103221.41;5091522;28;20062;-49
2023/01/22 10:32:30;;;;;;;26.27;17.00;;;;;;;-1.14;100.00;103224.13;5091197;28;20067;-46
2023/01/22 10:35:04;;;;;;;26.33;16.60;;;;;;;-1.07;100.00;103227.03;5091326;28;20035;-49
2023/01/22 10:37:29;;;;;;;26.63;17.95;;;;;;;-1.04;100.00;103221.25;5087772;28;20538;-50
2023/01/22 10:39:58;;;;;;;26.80;17.00;;;;;;;-1.05;100.00;103219.56;5091485;28;20115;-50
2023/01/22 10:42:27;;;;;;;25.65;17.40;;;;;;;-1.06;100.00;103217.84;5089799;28;20028;-48
2023/01/22 10:45:13;;;;;;;25.17;17.10;;;;;;;-1.05;100.00;103216.84;5089568;28;20027;-45
2023/01/22 10:47:38;;;;;;;25.27;16.85;;;;;;;-1.02;100.00;103225.50;5091132;28;20066;-50
2023/01/22 10:50:11;;;;;;;24.60;15.95;;;;;;;-1.04;100.00;103216.66;5090479;28;20055;-47
2023/01/22 10:52:50;;;;;;;27.23;17.42;;;;;;;-1.03;100.00;103228.38;5090233;28;20039;-48
2023/01/22 10:55:27;;;;;;;27.00;16.80;;;;;;;-0.97;100.00;103227.72;5090484;28;20052;-50
2023/01/22 10:58:06;;;;;;;26.15;17.25;;;;;;;-0.97;100.00;103230.44;5090927;28;20102;-46
2023/01/22 11:00:34;;;;;;;26.70;16.60;;;;;;;-0.92;100.00;103228.03;5089868;28;20047;-47
2023/01/22 11:03:00;;;;;;;24.95;16.90;;;;;;;-0.90;100.00;103217.84;5090554;28;20456;-49
2023/01/22 11:05:33;;;;;;;27.30;16.77;;;;;;;-0.88;100.00;103223.97;5089808;28;20451;-49
2023/01/22 11:08:02;;;;;;;;;;;;;;;-0.85;100.00;103211.91;5091405;28;20075;-46